»·PEaware :: N6182G KPSP-KTOA

N6182G :: KPSP-KTOA

FLIGHT INFORMATION

Flight Status: Arrived
Operator: Privately registered:
United States
More flights under this callsign
Pilot: Bernard S. (25498)
Aircraft: CESSNA 182 SKYLANE
(C182)
More flights by this aircraft type
Origin: KPSP Palm Springs Intl
United States
Destination: KTOA Zamperini
United States
More flights between these airports :: More routes between these airports
Route: +CATH1 PSP V388 PDZ PDZ270/016 V394 SLI
File this flight plan on PilotEdge
Remarks: Just flying
Altitude:
(Current/Filed)
4,500ft
Speed:
(Current/Filed)
120kts
Departed: 14-Dec-19 07:20 PM
Arrived: 14-Dec-19 08:28 PM
Distance/Time
Traveled:
92nm/1:07
Distance/Time
To Go:
Arrived

Flight Plot

Page will automatically refresh every two minutes.

Flight plan parsing failed; only flown route is shown


Map Options




Map Legend


Flown Route
Filed Route
Departure Airport
Arrival Airport
Navaid (VOR, NDB)
Fix

Horizontal Profiles

Position Reports

Time Latitude Longitude Heading Altitude Ground
Speed
14-Dec-19 18:39 33.824011 -116.497410 54 480ft 0kts
14-Dec-19 18:40 33.824014 -116.497405 54 480ft 0kts
14-Dec-19 18:41 33.824016 -116.497400 54 480ft 0kts
14-Dec-19 18:42 33.824019 -116.497396 54 480ft 0kts
14-Dec-19 18:43 33.824021 -116.497392 54 480ft 0kts
14-Dec-19 18:44 33.824024 -116.497388 54 480ft 0kts
14-Dec-19 18:45 33.824026 -116.497384 54 480ft 0kts
14-Dec-19 18:46 33.824028 -116.497380 54 480ft 0kts
14-Dec-19 18:47 33.824030 -116.497377 54 480ft 0kts
14-Dec-19 18:48 33.824033 -116.497373 54 480ft 0kts
14-Dec-19 18:49 33.824035 -116.497369 54 480ft 0kts
14-Dec-19 18:50 33.824037 -116.497365 54 480ft 0kts
14-Dec-19 18:51 33.824039 -116.497361 54 480ft 0kts
14-Dec-19 18:52 33.824042 -116.497357 54 480ft 0kts
14-Dec-19 18:53 33.824044 -116.497354 54 480ft 0kts
14-Dec-19 18:54 33.824046 -116.497350 54 480ft 0kts
14-Dec-19 18:55 33.824048 -116.497346 54 480ft 0kts
14-Dec-19 18:56 33.824051 -116.497342 54 480ft 0kts
14-Dec-19 18:57 33.824053 -116.497338 54 480ft 0kts
14-Dec-19 18:58 33.824055 -116.497334 54 480ft 0kts
14-Dec-19 18:59 33.824057 -116.497330 54 480ft 0kts
14-Dec-19 19:00 33.824060 -116.497326 54 480ft 0kts
14-Dec-19 19:01 33.824062 -116.497322 54 480ft 0kts
14-Dec-19 19:02 33.824064 -116.497319 54 480ft 0kts
14-Dec-19 19:03 33.824066 -116.497315 54 480ft 0kts
14-Dec-19 19:04 33.824069 -116.497311 54 480ft 0kts
14-Dec-19 19:05 33.824071 -116.497307 54 480ft 0kts
14-Dec-19 19:06 33.824073 -116.497303 54 480ft 0kts
14-Dec-19 19:07 33.824076 -116.497299 54 480ft 0kts
14-Dec-19 19:08 33.824078 -116.497295 54 480ft 0kts
14-Dec-19 19:09 33.824081 -116.497291 54 480ft 0kts
14-Dec-19 19:10 33.824083 -116.497287 54 480ft 0kts
14-Dec-19 19:11 33.824085 -116.497282 54 480ft 0kts
14-Dec-19 19:12 33.824088 -116.497278 54 480ft 0kts
14-Dec-19 19:13 33.824090 -116.497274 54 480ft 0kts
14-Dec-19 19:14 33.824093 -116.497270 54 480ft 0kts
14-Dec-19 19:15 33.824094 -116.497267 54 480ft 0kts
14-Dec-19 19:16 33.823901 -116.497973 254 480ft 4kts
14-Dec-19 19:17 33.824585 -116.499577 233 480ft 0kts
14-Dec-19 19:18 33.824580 -116.499587 233 480ft 0kts
14-Dec-19 19:19 33.829821 -116.504409 326 617ft 79kts
14-Dec-19 19:20 33.847600 -116.521585 312 1808ft 86kts
14-Dec-19 19:21 33.862644 -116.545569 311 2913ft 88kts
14-Dec-19 19:22 33.879059 -116.565700 316 3912ft 95kts
14-Dec-19 19:23 33.901390 -116.587901 316 4720ft 109kts
14-Dec-19 19:24 33.925298 -116.611489 316 5521ft 111kts
14-Dec-19 19:25 33.948467 -116.633774 315 6344ft 98kts
14-Dec-19 19:26 33.968180 -116.651711 315 7234ft 77kts
14-Dec-19 19:27 33.980861 -116.665579 276 7218ft 56kts
14-Dec-19 19:28 33.969721 -116.677911 237 6672ft 76kts
14-Dec-19 19:29 33.962531 -116.698834 253 7390ft 69kts
14-Dec-19 19:30 33.955681 -116.723858 253 7912ft 87kts
14-Dec-19 19:31 33.947944 -116.750870 253 8581ft 82kts
14-Dec-19 19:32 33.940326 -116.775698 253 9246ft 75kts
14-Dec-19 19:33 33.934507 -116.792673 253 9797ft 63kts
14-Dec-19 19:34 33.929459 -116.805777 253 10082ft 74kts
14-Dec-19 19:35 33.915658 -116.831591 199 10063ft 127kts
14-Dec-19 19:36 33.881945 -116.841745 231 10082ft 118kts
14-Dec-19 19:37 33.874212 -116.877630 266 10095ft 112kts
14-Dec-19 19:38 33.867146 -116.914180 269 10099ft 112kts
14-Dec-19 19:39 33.860899 -116.951231 258 10098ft 114kts
14-Dec-19 19:40 33.853145 -116.988497 256 10097ft 115kts
14-Dec-19 19:41 33.850911 -117.025675 278 10097ft 114kts
14-Dec-19 19:42 33.856919 -117.063017 277 10109ft 114kts
14-Dec-19 19:43 33.862592 -117.100558 277 10100ft 113kts
14-Dec-19 19:44 33.867540 -117.138238 276 10105ft 114kts
14-Dec-19 19:45 33.872318 -117.176021 278 10103ft 114kts
14-Dec-19 19:47 33.877277 -117.213708 278 10101ft 114kts
14-Dec-19 19:48 33.882198 -117.251400 278 10100ft 114kts
14-Dec-19 19:49 33.887120 -117.289104 278 10098ft 114kts
14-Dec-19 19:50 33.889272 -117.327401 277 10102ft 114kts
14-Dec-19 19:51 33.894445 -117.365271 279 10105ft 115kts
14-Dec-19 19:52 33.899962 -117.403025 279 10107ft 114kts
14-Dec-19 19:53 33.905480 -117.440655 279 10108ft 114kts
14-Dec-19 19:54 33.911213 -117.478540 279 10111ft 115kts
14-Dec-19 19:55 33.916355 -117.517111 281 10011ft 120kts
14-Dec-19 19:56 33.923139 -117.553741 281 10012ft 114kts
14-Dec-19 19:57 33.930411 -117.591646 288 10002ft 117kts
14-Dec-19 19:58 33.939932 -117.628485 282 10012ft 114kts
14-Dec-19 19:59 33.948705 -117.665434 284 10007ft 114kts
14-Dec-19 20:00 33.958977 -117.701564 289 10008ft 114kts
14-Dec-19 20:01 33.971059 -117.737129 289 9977ft 117kts
14-Dec-19 20:02 33.983788 -117.776288 289 9365ft 130kts
14-Dec-19 20:03 33.996696 -117.818340 289 8769ft 135kts
14-Dec-19 20:04 34.001663 -117.861442 244 8166ft 139kts
14-Dec-19 20:05 33.983092 -117.902766 224 7561ft 144kts
14-Dec-19 20:06 33.946001 -117.912476 161 6966ft 151kts
14-Dec-19 20:06 33.912903 -117.898233 161 6481ft 151kts
14-Dec-19 20:07 33.873144 -117.881609 161 5885ft 151kts
14-Dec-19 20:09 33.827154 -117.862461 161 5238ft 147kts
14-Dec-19 20:09 33.794843 -117.854279 206 4800ft 145kts
14-Dec-19 20:10 33.764604 -117.875691 211 4283ft 106kts
14-Dec-19 20:12 33.736939 -117.895559 211 3703ft 95kts
14-Dec-19 20:12 33.718203 -117.909134 211 3291ft 94kts
14-Dec-19 20:13 33.704893 -117.934091 253 2807ft 93kts
14-Dec-19 20:14 33.698561 -117.964984 253 2264ft 97kts
14-Dec-19 20:15 33.691472 -117.998597 253 2000ft 118kts
14-Dec-19 20:16 33.682604 -118.039826 259 1995ft 131kts
14-Dec-19 20:17 33.684431 -118.084166 272 1997ft 133kts
14-Dec-19 20:18 33.686939 -118.128190 272 1994ft 131kts
14-Dec-19 20:19 33.687997 -118.171830 288 1982ft 132kts
14-Dec-19 20:20 33.710904 -118.206399 308 1997ft 132kts
14-Dec-19 20:21 33.733448 -118.238447 307 1973ft 94kts
14-Dec-19 20:22 33.746576 -118.255659 313 1829ft 72kts
14-Dec-19 20:23 33.760731 -118.273940 305 1353ft 72kts
14-Dec-19 20:24 33.773318 -118.292639 300 939ft 71kts
14-Dec-19 20:25 33.784958 -118.311262 305 651ft 71kts
14-Dec-19 20:26 33.797504 -118.329682 302 292ft 73kts
14-Dec-19 20:27 33.804707 -118.340781 309 106ft 27kts
14-Dec-19 20:28 33.805668 -118.342888 286 106ft 0kts
14-Dec-19 20:29 33.806067 -118.344850 265 106ft 10kts
14-Dec-19 20:30 33.806043 -118.346791 311 106ft 0kts
14-Dec-19 20:31 33.807585 -118.346876 147 106ft 10kts
14-Dec-19 20:32 33.804911 -118.346972 127 106ft 14kts
14-Dec-19 20:33 33.802849 -118.344550 190 106ft 1kts
14-Dec-19 20:34 33.802948 -118.344528 190 106ft 0kts

Navigation Log

Ident Type
Flight plan parsing failed, navigation log unavailable